sensor_id;sensor_type;location;lat;lon;timestamp;P1;durP1;ratioP1;P2;durP2;ratioP2
76591;SDS011;65481;47.600;19.682;2023-02-21T00:02:26;15.35;;;10.05;;
76591;SDS011;65481;47.600;19.682;2023-02-21T00:07:46;18.58;;;10.23;;
76591;SDS011;65481;47.600;19.682;2023-02-21T00:13:05;19.92;;;9.82;;
76591;SDS011;65481;47.600;19.682;2023-02-21T00:18:24;19.40;;;10.38;;
76591;SDS011;65481;47.600;19.682;2023-02-21T00:23:44;19.67;;;10.15;;
76591;SDS011;65481;47.600;19.682;2023-02-21T00:29:03;13.88;;;9.05;;
76591;SDS011;65481;47.600;19.682;2023-02-21T00:34:22;16.77;;;9.43;;
76591;SDS011;65481;47.600;19.682;2023-02-21T00:39:42;15.02;;;8.15;;
76591;SDS011;65481;47.600;19.682;2023-02-21T00:45:01;15.20;;;8.90;;
76591;SDS011;65481;47.600;19.682;2023-02-21T00:50:20;16.17;;;8.50;;
76591;SDS011;65481;47.600;19.682;2023-02-21T00:55:39;13.05;;;6.95;;
76591;SDS011;65481;47.600;19.682;2023-02-21T01:00:59;11.25;;;6.13;;
76591;SDS011;65481;47.600;19.682;2023-02-21T01:06:18;10.68;;;6.28;;
76591;SDS011;65481;47.600;19.682;2023-02-21T01:11:37;11.93;;;6.47;;
76591;SDS011;65481;47.600;19.682;2023-02-21T01:16:57;10.38;;;6.28;;
76591;SDS011;65481;47.600;19.682;2023-02-21T01:22:16;9.52;;;5.68;;
76591;SDS011;65481;47.600;19.682;2023-02-21T01:27:35;9.10;;;5.57;;
76591;SDS011;65481;47.600;19.682;2023-02-21T01:32:55;8.85;;;5.30;;
76591;SDS011;65481;47.600;19.682;2023-02-21T01:38:14;10.80;;;4.60;;
76591;SDS011;65481;47.600;19.682;2023-02-21T01:43:34;11.00;;;5.13;;
76591;SDS011;65481;47.600;19.682;2023-02-21T01:48:53;8.95;;;5.13;;
76591;SDS011;65481;47.600;19.682;2023-02-21T01:54:13;7.25;;;4.28;;
76591;SDS011;65481;47.600;19.682;2023-02-21T01:59:34;7.75;;;4.35;;
76591;SDS011;65481;47.600;19.682;2023-02-21T02:04:54;5.85;;;3.42;;
76591;SDS011;65481;47.600;19.682;2023-02-21T02:10:13;5.90;;;3.17;;
76591;SDS011;65481;47.600;19.682;2023-02-21T02:15:36;5.38;;;2.63;;
76591;SDS011;65481;47.600;19.682;2023-02-21T02:26:19;4.65;;;3.05;;
76591;SDS011;65481;47.600;19.682;2023-02-21T02:31:38;5.72;;;3.53;;
76591;SDS011;65481;47.600;19.682;2023-02-21T02:37:03;6.60;;;3.53;;
76591;SDS011;65481;47.600;19.682;2023-02-21T02:42:29;6.40;;;3.35;;
76591;SDS011;65481;47.600;19.682;2023-02-21T02:47:33;4.22;;;2.80;;
76591;SDS011;65481;47.600;19.682;2023-02-21T02:52:38;4.82;;;2.85;;
76591;SDS011;65481;47.600;19.682;2023-02-21T02:57:49;5.32;;;2.67;;
76591;SDS011;65481;47.600;19.682;2023-02-21T03:08:07;3.43;;;1.97;;
76591;SDS011;65481;47.600;19.682;2023-02-21T03:13:17;4.38;;;2.70;;
76591;SDS011;65481;47.600;19.682;2023-02-21T03:18:23;3.25;;;2.08;;
76591;SDS011;65481;47.600;19.682;2023-02-21T03:23:36;4.43;;;2.10;;
76591;SDS011;65481;47.600;19.682;2023-02-21T03:28:38;3.97;;;2.22;;
76591;SDS011;65481;47.600;19.682;2023-02-21T03:33:39;4.72;;;2.13;;
76591;SDS011;65481;47.600;19.682;2023-02-21T03:38:40;4.70;;;2.80;;
76591;SDS011;65481;47.600;19.682;2023-02-21T03:43:41;6.63;;;2.50;;
76591;SDS011;65481;47.600;19.682;2023-02-21T03:48:42;3.97;;;2.00;;
76591;SDS011;65481;47.600;19.682;2023-02-21T03:53:42;5.03;;;2.72;;
76591;SDS011;65481;47.600;19.682;2023-02-21T03:58:43;5.13;;;2.47;;
76591;SDS011;65481;47.600;19.682;2023-02-21T04:03:43;3.65;;;2.08;;
76591;SDS011;65481;47.600;19.682;2023-02-21T04:08:44;4.80;;;2.67;;
76591;SDS011;65481;47.600;19.682;2023-02-21T04:13:44;5.65;;;2.47;;
76591;SDS011;65481;47.600;19.682;2023-02-21T04:18:45;3.00;;;2.20;;
76591;SDS011;65481;47.600;19.682;2023-02-21T04:23:45;4.00;;;1.80;;
76591;SDS011;65481;47.600;19.682;2023-02-21T04:28:46;4.43;;;2.33;;
76591;SDS011;65481;47.600;19.682;2023-02-21T04:33:48;7.47;;;3.17;;
76591;SDS011;65481;47.600;19.682;2023-02-21T04:38:48;5.40;;;3.15;;
76591;SDS011;65481;47.600;19.682;2023-02-21T04:43:49;5.22;;;2.53;;
76591;SDS011;65481;47.600;19.682;2023-02-21T04:48:52;14.48;;;5.88;;
76591;SDS011;65481;47.600;19.682;2023-02-21T04:53:53;15.23;;;7.55;;
76591;SDS011;65481;47.600;19.682;2023-02-21T04:58:54;7.40;;;4.30;;
76591;SDS011;65481;47.600;19.682;2023-02-21T05:03:56;6.68;;;3.45;;
76591;SDS011;65481;47.600;19.682;2023-02-21T05:08:57;11.75;;;6.57;;
76591;SDS011;65481;47.600;19.682;2023-02-21T05:13:58;8.70;;;4.90;;
76591;SDS011;65481;47.600;19.682;2023-02-21T05:18:59;8.85;;;4.45;;
76591;SDS011;65481;47.600;19.682;2023-02-21T05:24:01;8.98;;;4.35;;
76591;SDS011;65481;47.600;19.682;2023-02-21T05:29:03;9.95;;;6.00;;
76591;SDS011;65481;47.600;19.682;2023-02-21T05:34:04;5.05;;;3.38;;
76591;SDS011;65481;47.600;19.682;2023-02-21T05:39:05;5.70;;;3.72;;
76591;SDS011;65481;47.600;19.682;2023-02-21T05:44:07;5.60;;;2.83;;
76591;SDS011;65481;47.600;19.682;2023-02-21T05:49:07;4.55;;;2.72;;
76591;SDS011;65481;47.600;19.682;2023-02-21T05:54:10;4.70;;;2.30;;
76591;SDS011;65481;47.600;19.682;2023-02-21T05:59:15;4.38;;;2.50;;
76591;SDS011;65481;47.600;19.682;2023-02-21T06:04:18;4.07;;;2.60;;
76591;SDS011;65481;47.600;19.682;2023-02-21T06:09:19;4.20;;;3.00;;
76591;SDS011;65481;47.600;19.682;2023-02-21T06:14:19;5.63;;;2.20;;
76591;SDS011;65481;47.600;19.682;2023-02-21T06:19:20;9.43;;;3.60;;
76591;SDS011;65481;47.600;19.682;2023-02-21T06:24:20;6.50;;;2.80;;
76591;SDS011;65481;47.600;19.682;2023-02-21T06:29:21;4.20;;;2.60;;
76591;SDS011;65481;47.600;19.682;2023-02-21T06:34:22;4.53;;;2.53;;
76591;SDS011;65481;47.600;19.682;2023-02-21T06:39:22;5.78;;;2.63;;
76591;SDS011;65481;47.600;19.682;2023-02-21T06:44:23;3.83;;;2.40;;
76591;SDS011;65481;47.600;19.682;2023-02-21T06:49:24;5.38;;;2.72;;
76591;SDS011;65481;47.600;19.682;2023-02-21T06:54:24;6.13;;;2.83;;
76591;SDS011;65481;47.600;19.682;2023-02-21T06:59:25;4.85;;;2.88;;
76591;SDS011;65481;47.600;19.682;2023-02-21T07:04:25;4.10;;;1.92;;
76591;SDS011;65481;47.600;19.682;2023-02-21T07:09:26;3.00;;;2.30;;
76591;SDS011;65481;47.600;19.682;2023-02-21T07:14:26;4.55;;;2.30;;
76591;SDS011;65481;47.600;19.682;2023-02-21T07:19:27;4.53;;;2.42;;
76591;SDS011;65481;47.600;19.682;2023-02-21T07:24:27;2.88;;;1.95;;
76591;SDS011;65481;47.600;19.682;2023-02-21T07:29:28;4.25;;;2.63;;
76591;SDS011;65481;47.600;19.682;2023-02-21T07:34:28;4.75;;;2.40;;
76591;SDS011;65481;47.600;19.682;2023-02-21T07:39:29;4.20;;;2.45;;
76591;SDS011;65481;47.600;19.682;2023-02-21T07:44:29;5.78;;;2.35;;
76591;SDS011;65481;47.600;19.682;2023-02-21T07:49:30;3.97;;;2.33;;
76591;SDS011;65481;47.600;19.682;2023-02-21T07:54:30;3.97;;;2.17;;
76591;SDS011;65481;47.600;19.682;2023-02-21T07:59:31;5.85;;;2.47;;
76591;SDS011;65481;47.600;19.682;2023-02-21T08:04:31;6.13;;;2.13;;
76591;SDS011;65481;47.600;19.682;2023-02-21T08:09:32;3.60;;;2.30;;
76591;SDS011;65481;47.600;19.682;2023-02-21T08:14:33;7.05;;;2.60;;
76591;SDS011;65481;47.600;19.682;2023-02-21T08:19:34;4.35;;;2.35;;
76591;SDS011;65481;47.600;19.682;2023-02-21T08:24:34;5.70;;;2.85;;
76591;SDS011;65481;47.600;19.682;2023-02-21T08:29:35;7.07;;;2.60;;
76591;SDS011;65481;47.600;19.682;2023-02-21T08:34:35;3.38;;;2.35;;
76591;SDS011;65481;47.600;19.682;2023-02-21T08:39:36;4.05;;;2.60;;
76591;SDS011;65481;47.600;19.682;2023-02-21T08:44:36;3.78;;;2.30;;
76591;SDS011;65481;47.600;19.682;2023-02-21T08:49:36;3.60;;;2.33;;
76591;SDS011;65481;47.600;19.682;2023-02-21T08:54:39;3.47;;;2.35;;
76591;SDS011;65481;47.600;19.682;2023-02-21T08:59:40;3.55;;;2.10;;
76591;SDS011;65481;47.600;19.682;2023-02-21T09:04:41;3.83;;;2.30;;
76591;SDS011;65481;47.600;19.682;2023-02-21T09:09:42;3.85;;;2.15;;
76591;SDS011;65481;47.600;19.682;2023-02-21T09:14:42;5.93;;;2.25;;
76591;SDS011;65481;47.600;19.682;2023-02-21T09:19:43;2.60;;;1.92;;
76591;SDS011;65481;47.600;19.682;2023-02-21T09:24:44;4.88;;;2.03;;
76591;SDS011;65481;47.600;19.682;2023-02-21T09:29:44;5.70;;;2.00;;
76591;SDS011;65481;47.600;19.682;2023-02-21T09:34:46;2.63;;;1.60;;
76591;SDS011;65481;47.600;19.682;2023-02-21T09:39:46;4.47;;;1.98;;
76591;SDS011;65481;47.600;19.682;2023-02-21T09:44:47;5.68;;;2.60;;
76591;SDS011;65481;47.600;19.682;2023-02-21T09:49:47;3.50;;;2.05;;
76591;SDS011;65481;47.600;19.682;2023-02-21T09:54:55;4.88;;;2.17;;
76591;SDS011;65481;47.600;19.682;2023-02-21T09:59:59;3.80;;;2.00;;
76591;SDS011;65481;47.600;19.682;2023-02-21T10:05:15;3.30;;;1.90;;
76591;SDS011;65481;47.600;19.682;2023-02-21T10:21:11;5.93;;;2.28;;
76591;SDS011;65481;47.600;19.682;2023-02-21T10:26:23;3.00;;;2.30;;
76591;SDS011;65481;47.600;19.682;2023-02-21T10:31:31;3.08;;;2.10;;
76591;SDS011;65481;47.600;19.682;2023-02-21T10:36:35;2.85;;;1.90;;
76591;SDS011;65481;47.600;19.682;2023-02-21T10:41:36;3.95;;;2.30;;
76591;SDS011;65481;47.600;19.682;2023-02-21T10:46:42;3.30;;;2.20;;
76591;SDS011;65481;47.600;19.682;2023-02-21T10:51:46;5.90;;;2.20;;
76591;SDS011;65481;47.600;19.682;2023-02-21T10:57:01;6.00;;;2.63;;
76591;SDS011;65481;47.600;19.682;2023-02-21T11:02:21;3.90;;;2.35;;
76591;SDS011;65481;47.600;19.682;2023-02-21T11:07:35;3.63;;;2.50;;
76591;SDS011;65481;47.600;19.682;2023-02-21T11:12:35;5.32;;;2.30;;
76591;SDS011;65481;47.600;19.682;2023-02-21T11:17:36;5.18;;;2.10;;
76591;SDS011;65481;47.600;19.682;2023-02-21T11:22:37;4.00;;;2.35;;
76591;SDS011;65481;47.600;19.682;2023-02-21T11:27:41;4.75;;;2.50;;
76591;SDS011;65481;47.600;19.682;2023-02-21T11:32:46;4.00;;;2.50;;
76591;SDS011;65481;47.600;19.682;2023-02-21T11:37:55;5.95;;;2.55;;
76591;SDS011;65481;47.600;19.682;2023-02-21T11:48:20;5.65;;;3.13;;
76591;SDS011;65481;47.600;19.682;2023-02-21T11:53:31;4.18;;;2.40;;
76591;SDS011;65481;47.600;19.682;2023-02-21T11:58:55;2.90;;;2.17;;
76591;SDS011;65481;47.600;19.682;2023-02-21T12:09:20;4.32;;;2.80;;
76591;SDS011;65481;47.600;19.682;2023-02-21T12:19:58;3.30;;;2.17;;
76591;SDS011;65481;47.600;19.682;2023-02-21T12:30:24;4.97;;;2.65;;
76591;SDS011;65481;47.600;19.682;2023-02-21T12:51:40;4.78;;;2.10;;
76591;SDS011;65481;47.600;19.682;2023-02-21T12:57:02;2.63;;;1.92;;
76591;SDS011;65481;47.600;19.682;2023-02-21T13:02:11;2.35;;;1.83;;
76591;SDS011;65481;47.600;19.682;2023-02-21T13:12:27;2.63;;;1.70;;
76591;SDS011;65481;47.600;19.682;2023-02-21T13:17:34;3.00;;;1.60;;
76591;SDS011;65481;47.600;19.682;2023-02-21T13:28:17;3.35;;;2.08;;
76591;SDS011;65481;47.600;19.682;2023-02-21T13:38:43;4.70;;;2.13;;
76591;SDS011;65481;47.600;19.682;2023-02-21T13:43:50;2.55;;;2.10;;
76591;SDS011;65481;47.600;19.682;2023-02-21T13:54:30;4.65;;;1.90;;
76591;SDS011;65481;47.600;19.682;2023-02-21T13:59:32;5.03;;;1.80;;
76591;SDS011;65481;47.600;19.682;2023-02-21T14:04:57;10.15;;;3.28;;
76591;SDS011;65481;47.600;19.682;2023-02-21T14:10:00;4.40;;;2.15;;
76591;SDS011;65481;47.600;19.682;2023-02-21T14:15:05;2.55;;;1.67;;
76591;SDS011;65481;47.600;19.682;2023-02-21T14:20:13;3.28;;;1.67;;
76591;SDS011;65481;47.600;19.682;2023-02-21T14:25:17;3.67;;;1.52;;
76591;SDS011;65481;47.600;19.682;2023-02-21T14:30:27;4.25;;;1.98;;
76591;SDS011;65481;47.600;19.682;2023-02-21T14:35:32;2.25;;;1.58;;
76591;SDS011;65481;47.600;19.682;2023-02-21T15:07:26;2.72;;;1.92;;
76591;SDS011;65481;47.600;19.682;2023-02-21T15:12:27;2.67;;;1.92;;
76591;SDS011;65481;47.600;19.682;2023-02-21T15:17:28;3.45;;;1.70;;
76591;SDS011;65481;47.600;19.682;2023-02-21T15:22:29;2.15;;;1.77;;
76591;SDS011;65481;47.600;19.682;2023-02-21T15:27:30;3.45;;;2.05;;
76591;SDS011;65481;47.600;19.682;2023-02-21T15:32:30;4.03;;;2.20;;
76591;SDS011;65481;47.600;19.682;2023-02-21T15:37:32;2.97;;;2.13;;
76591;SDS011;65481;47.600;19.682;2023-02-21T15:42:38;3.70;;;2.17;;
76591;SDS011;65481;47.600;19.682;2023-02-21T15:47:40;3.53;;;2.03;;
76591;SDS011;65481;47.600;19.682;2023-02-21T15:52:41;4.07;;;2.40;;
76591;SDS011;65481;47.600;19.682;2023-02-21T15:57:46;3.88;;;2.20;;
76591;SDS011;65481;47.600;19.682;2023-02-21T16:08:35;4.13;;;2.20;;
76591;SDS011;65481;47.600;19.682;2023-02-21T16:13:50;3.08;;;2.15;;
76591;SDS011;65481;47.600;19.682;2023-02-21T16:18:54;3.75;;;2.05;;
76591;SDS011;65481;47.600;19.682;2023-02-21T16:23:56;4.45;;;2.08;;
76591;SDS011;65481;47.600;19.682;2023-02-21T16:29:33;5.80;;;2.97;;
76591;SDS011;65481;47.600;19.682;2023-02-21T16:34:34;10.18;;;5.28;;
76591;SDS011;65481;47.600;19.682;2023-02-21T16:39:35;11.90;;;6.15;;
76591;SDS011;65481;47.600;19.682;2023-02-21T16:44:36;7.00;;;4.65;;
76591;SDS011;65481;47.600;19.682;2023-02-21T16:49:36;7.88;;;4.55;;
76591;SDS011;65481;47.600;19.682;2023-02-21T16:54:37;8.68;;;5.95;;
76591;SDS011;65481;47.600;19.682;2023-02-21T16:59:37;7.85;;;5.30;;
76591;SDS011;65481;47.600;19.682;2023-02-21T17:04:38;6.18;;;4.25;;
76591;SDS011;65481;47.600;19.682;2023-02-21T17:09:39;5.63;;;3.67;;
76591;SDS011;65481;47.600;19.682;2023-02-21T17:14:40;5.28;;;3.20;;
76591;SDS011;65481;47.600;19.682;2023-02-21T17:19:41;5.85;;;3.75;;
76591;SDS011;65481;47.600;19.682;2023-02-21T17:24:43;7.57;;;4.18;;
76591;SDS011;65481;47.600;19.682;2023-02-21T17:29:45;6.70;;;3.75;;
76591;SDS011;65481;47.600;19.682;2023-02-21T17:34:46;4.88;;;3.05;;
76591;SDS011;65481;47.600;19.682;2023-02-21T17:39:50;4.85;;;2.70;;
76591;SDS011;65481;47.600;19.682;2023-02-21T17:44:55;4.32;;;2.78;;
76591;SDS011;65481;47.600;19.682;2023-02-21T17:49:56;6.03;;;2.80;;
76591;SDS011;65481;47.600;19.682;2023-02-21T17:54:59;5.18;;;3.10;;
76591;SDS011;65481;47.600;19.682;2023-02-21T18:00:06;4.88;;;3.00;;
76591;SDS011;65481;47.600;19.682;2023-02-21T18:05:11;6.95;;;3.47;;
76591;SDS011;65481;47.600;19.682;2023-02-21T18:10:12;5.38;;;3.78;;
76591;SDS011;65481;47.600;19.682;2023-02-21T18:15:13;6.28;;;3.97;;
76591;SDS011;65481;47.600;19.682;2023-02-21T18:20:15;5.65;;;3.63;;
76591;SDS011;65481;47.600;19.682;2023-02-21T18:25:16;5.00;;;3.47;;
76591;SDS011;65481;47.600;19.682;2023-02-21T18:30:20;5.93;;;3.55;;
76591;SDS011;65481;47.600;19.682;2023-02-21T18:35:22;4.97;;;3.40;;
76591;SDS011;65481;47.600;19.682;2023-02-21T18:40:23;4.63;;;3.13;;
76591;SDS011;65481;47.600;19.682;2023-02-21T18:45:33;7.30;;;3.50;;
76591;SDS011;65481;47.600;19.682;2023-02-21T18:50:34;5.47;;;3.70;;
76591;SDS011;65481;47.600;19.682;2023-02-21T18:55:36;5.63;;;3.33;;
76591;SDS011;65481;47.600;19.682;2023-02-21T19:00:38;4.22;;;3.03;;
76591;SDS011;65481;47.600;19.682;2023-02-21T19:05:40;5.47;;;3.30;;
76591;SDS011;65481;47.600;19.682;2023-02-21T19:10:40;5.72;;;3.00;;
76591;SDS011;65481;47.600;19.682;2023-02-21T19:15:41;6.68;;;3.55;;
76591;SDS011;65481;47.600;19.682;2023-02-21T19:20:42;6.18;;;3.10;;
76591;SDS011;65481;47.600;19.682;2023-02-21T19:25:43;5.03;;;3.45;;
76591;SDS011;65481;47.600;19.682;2023-02-21T19:30:44;7.85;;;3.90;;
76591;SDS011;65481;47.600;19.682;2023-02-21T19:35:45;5.53;;;3.33;;
76591;SDS011;65481;47.600;19.682;2023-02-21T19:40:48;5.63;;;4.10;;
76591;SDS011;65481;47.600;19.682;2023-02-21T19:45:50;7.80;;;4.20;;
76591;SDS011;65481;47.600;19.682;2023-02-21T19:50:51;6.03;;;4.00;;
76591;SDS011;65481;47.600;19.682;2023-02-21T19:55:52;7.68;;;4.15;;
76591;SDS011;65481;47.600;19.682;2023-02-21T20:00:53;5.72;;;4.05;;
76591;SDS011;65481;47.600;19.682;2023-02-21T20:05:54;7.57;;;4.80;;
76591;SDS011;65481;47.600;19.682;2023-02-21T20:10:55;9.68;;;6.03;;
76591;SDS011;65481;47.600;19.682;2023-02-21T20:15:56;8.70;;;5.40;;
76591;SDS011;65481;47.600;19.682;2023-02-21T20:20:57;6.60;;;4.85;;
76591;SDS011;65481;47.600;19.682;2023-02-21T20:26:00;6.70;;;5.00;;
76591;SDS011;65481;47.600;19.682;2023-02-21T20:31:01;7.55;;;4.85;;
76591;SDS011;65481;47.600;19.682;2023-02-21T20:36:02;9.95;;;4.82;;
76591;SDS011;65481;47.600;19.682;2023-02-21T20:41:07;14.05;;;6.72;;
76591;SDS011;65481;47.600;19.682;2023-02-21T20:46:10;11.27;;;6.30;;
76591;SDS011;65481;47.600;19.682;2023-02-21T20:51:10;18.48;;;8.48;;
76591;SDS011;65481;47.600;19.682;2023-02-21T20:56:12;12.23;;;6.28;;
76591;SDS011;65481;47.600;19.682;2023-02-21T21:01:13;7.53;;;4.68;;
76591;SDS011;65481;47.600;19.682;2023-02-21T21:06:14;7.70;;;4.68;;
76591;SDS011;65481;47.600;19.682;2023-02-21T21:11:15;10.98;;;5.72;;
76591;SDS011;65481;47.600;19.682;2023-02-21T21:16:17;7.25;;;4.20;;
76591;SDS011;65481;47.600;19.682;2023-02-21T21:21:19;5.47;;;3.47;;
76591;SDS011;65481;47.600;19.682;2023-02-21T21:26:23;7.47;;;4.45;;
76591;SDS011;65481;47.600;19.682;2023-02-21T21:31:24;6.72;;;4.25;;
76591;SDS011;65481;47.600;19.682;2023-02-21T21:36:25;4.35;;;3.00;;
76591;SDS011;65481;47.600;19.682;2023-02-21T21:41:26;5.43;;;3.65;;
76591;SDS011;65481;47.600;19.682;2023-02-21T21:46:27;5.25;;;3.17;;
76591;SDS011;65481;47.600;19.682;2023-02-21T21:51:29;4.93;;;3.58;;
76591;SDS011;65481;47.600;19.682;2023-02-21T21:56:33;6.82;;;3.97;;
76591;SDS011;65481;47.600;19.682;2023-02-21T22:01:34;7.82;;;4.88;;
76591;SDS011;65481;47.600;19.682;2023-02-21T22:06:35;9.68;;;5.50;;
76591;SDS011;65481;47.600;19.682;2023-02-21T22:11:36;10.32;;;4.78;;
76591;SDS011;65481;47.600;19.682;2023-02-21T22:16:37;6.72;;;3.80;;
76591;SDS011;65481;47.600;19.682;2023-02-21T22:21:40;10.65;;;6.75;;
76591;SDS011;65481;47.600;19.682;2023-02-21T22:26:42;6.38;;;4.38;;
76591;SDS011;65481;47.600;19.682;2023-02-21T22:31:46;7.68;;;4.47;;
76591;SDS011;65481;47.600;19.682;2023-02-21T22:36:51;6.63;;;3.78;;
76591;SDS011;65481;47.600;19.682;2023-02-21T22:41:53;4.82;;;3.80;;
76591;SDS011;65481;47.600;19.682;2023-02-21T22:46:54;6.10;;;4.25;;
76591;SDS011;65481;47.600;19.682;2023-02-21T22:51:58;6.97;;;4.55;;
76591;SDS011;65481;47.600;19.682;2023-02-21T22:56:59;5.78;;;4.00;;
76591;SDS011;65481;47.600;19.682;2023-02-21T23:02:01;5.03;;;4.03;;
76591;SDS011;65481;47.600;19.682;2023-02-21T23:07:02;5.47;;;4.05;;
76591;SDS011;65481;47.600;19.682;2023-02-21T23:12:03;5.30;;;4.20;;
76591;SDS011;65481;47.600;19.682;2023-02-21T23:17:04;5.68;;;4.45;;
76591;SDS011;65481;47.600;19.682;2023-02-21T23:22:05;8.65;;;5.25;;
76591;SDS011;65481;47.600;19.682;2023-02-21T23:27:09;6.82;;;4.28;;
76591;SDS011;65481;47.600;19.682;2023-02-21T23:32:10;10.40;;;5.47;;
76591;SDS011;65481;47.600;19.682;2023-02-21T23:37:10;8.77;;;4.93;;
76591;SDS011;65481;47.600;19.682;2023-02-21T23:42:14;8.20;;;5.20;;
76591;SDS011;65481;47.600;19.682;2023-02-21T23:47:16;6.65;;;4.65;;
76591;SDS011;65481;47.600;19.682;2023-02-21T23:52:17;6.15;;;4.05;;
76591;SDS011;65481;47.600;19.682;2023-02-21T23:57:17;7.00;;;4.82;;
